sensor_id;sensor_type;location;lat;lon;timestamp;temperature;humidity
79494;SHT31;68951;53.130;18.104;2023-06-24T00:02:27;19.89;59.21
79494;SHT31;68951;53.130;18.104;2023-06-24T00:04:53;19.88;59.26
79494;SHT31;68951;53.130;18.104;2023-06-24T00:07:20;19.86;59.29
79494;SHT31;68951;53.130;18.104;2023-06-24T00:09:48;19.84;59.29
79494;SHT31;68951;53.130;18.104;2023-06-24T00:12:15;19.84;59.31
79494;SHT31;68951;53.130;18.104;2023-06-24T00:14:48;19.81;59.40
79494;SHT31;68951;53.130;18.104;2023-06-24T00:17:16;19.80;59.42
79494;SHT31;68951;53.130;18.104;2023-06-24T00:19:43;19.76;59.51
79494;SHT31;68951;53.130;18.104;2023-06-24T00:22:13;19.74;59.60
79494;SHT31;68951;53.130;18.104;2023-06-24T00:24:39;19.73;59.67
79494;SHT31;68951;53.130;18.104;2023-06-24T00:27:08;19.73;59.72
79494;SHT31;68951;53.130;18.104;2023-06-24T00:29:35;19.70;59.80
79494;SHT31;68951;53.130;18.104;2023-06-24T00:32:02;19.68;59.82
79494;SHT31;68951;53.130;18.104;2023-06-24T00:34:29;19.67;59.90
79494;SHT31;68951;53.130;18.104;2023-06-24T00:36:56;19.67;60.00
79494;SHT31;68951;53.130;18.104;2023-06-24T00:39:23;19.64;60.03
79494;SHT31;68951;53.130;18.104;2023-06-24T00:41:50;19.62;60.11
79494;SHT31;68951;53.130;18.104;2023-06-24T00:44:17;19.62;60.20
79494;SHT31;68951;53.130;18.104;2023-06-24T00:46:44;19.61;60.30
79494;SHT31;68951;53.130;18.104;2023-06-24T00:49:10;19.60;60.40
79494;SHT31;68951;53.130;18.104;2023-06-24T00:51:41;19.56;60.48
79494;SHT31;68951;53.130;18.104;2023-06-24T00:54:16;19.54;60.60
79494;SHT31;68951;53.130;18.104;2023-06-24T00:56:43;19.53;60.70
79494;SHT31;68951;53.130;18.104;2023-06-24T00:59:12;19.50;60.84
79494;SHT31;68951;53.130;18.104;2023-06-24T01:01:41;19.50;60.96
79494;SHT31;68951;53.130;18.104;2023-06-24T01:04:10;19.48;61.07
79494;SHT31;68951;53.130;18.104;2023-06-24T01:06:37;19.43;61.12
79494;SHT31;68951;53.130;18.104;2023-06-24T01:09:09;19.42;61.23
79494;SHT31;68951;53.130;18.104;2023-06-24T01:11:36;19.44;61.30
79494;SHT31;68951;53.130;18.104;2023-06-24T01:14:03;19.46;61.37
79494;SHT31;68951;53.130;18.104;2023-06-24T01:16:33;19.50;61.44
79494;SHT31;68951;53.130;18.104;2023-06-24T01:32:11;19.33;61.91
79494;SHT31;68951;53.130;18.104;2023-06-24T01:34:56;19.25;62.04
79494;SHT31;68951;53.130;18.104;2023-06-24T01:37:37;19.18;62.18
79494;SHT31;68951;53.130;18.104;2023-06-24T01:42:48;19.06;62.51
79494;SHT31;68951;53.130;18.104;2023-06-24T01:45:18;19.05;62.65
79494;SHT31;68951;53.130;18.104;2023-06-24T01:47:48;19.00;62.77
79494;SHT31;68951;53.130;18.104;2023-06-24T01:50:21;18.97;62.89
79494;SHT31;68951;53.130;18.104;2023-06-24T01:52:50;18.97;63.04
79494;SHT31;68951;53.130;18.104;2023-06-24T01:55:21;19.00;63.11
79494;SHT31;68951;53.130;18.104;2023-06-24T01:57:50;19.05;63.15
79494;SHT31;68951;53.130;18.104;2023-06-24T02:00:21;19.13;63.20
79494;SHT31;68951;53.130;18.104;2023-06-24T02:02:50;19.21;63.22
79494;SHT31;68951;53.130;18.104;2023-06-24T02:05:18;19.22;63.21
79494;SHT31;68951;53.130;18.104;2023-06-24T02:07:47;19.22;63.21
79494;SHT31;68951;53.130;18.104;2023-06-24T02:10:16;19.19;63.21
79494;SHT31;68951;53.130;18.104;2023-06-24T02:12:45;19.17;63.29
79494;SHT31;68951;53.130;18.104;2023-06-24T02:15:15;19.18;63.30
79494;SHT31;68951;53.130;18.104;2023-06-24T02:17:43;19.17;63.33
79494;SHT31;68951;53.130;18.104;2023-06-24T02:20:13;19.14;63.40
79494;SHT31;68951;53.130;18.104;2023-06-24T02:22:42;19.10;63.48
79494;SHT31;68951;53.130;18.104;2023-06-24T02:25:12;19.09;63.58
79494;SHT31;68951;53.130;18.104;2023-06-24T02:27:39;19.08;63.67
79494;SHT31;68951;53.130;18.104;2023-06-24T02:30:07;19.08;63.78
79494;SHT31;68951;53.130;18.104;2023-06-24T02:32:36;19.10;63.80
79494;SHT31;68951;53.130;18.104;2023-06-24T02:35:04;19.11;63.84
79494;SHT31;68951;53.130;18.104;2023-06-24T02:37:33;19.14;63.91
79494;SHT31;68951;53.130;18.104;2023-06-24T02:40:01;19.10;63.99
79494;SHT31;68951;53.130;18.104;2023-06-24T02:42:30;19.06;64.08
79494;SHT31;68951;53.130;18.104;2023-06-24T02:44:57;19.04;64.19
79494;SHT31;68951;53.130;18.104;2023-06-24T02:47:24;19.02;64.28
79494;SHT31;68951;53.130;18.104;2023-06-24T02:49:52;18.99;64.39
79494;SHT31;68951;53.130;18.104;2023-06-24T02:52:23;18.95;64.46
79494;SHT31;68951;53.130;18.104;2023-06-24T02:54:55;18.92;64.57
79494;SHT31;68951;53.130;18.104;2023-06-24T02:57:27;18.90;64.70
79494;SHT31;68951;53.130;18.104;2023-06-24T02:59:54;18.87;64.77
79494;SHT31;68951;53.130;18.104;2023-06-24T03:02:21;18.86;64.87
79494;SHT31;68951;53.130;18.104;2023-06-24T03:04:50;18.87;64.94
79494;SHT31;68951;53.130;18.104;2023-06-24T03:07:18;18.90;65.00
79494;SHT31;68951;53.130;18.104;2023-06-24T03:09:48;18.90;65.02
79494;SHT31;68951;53.130;18.104;2023-06-24T03:12:15;18.90;65.10
79494;SHT31;68951;53.130;18.104;2023-06-24T03:14:41;18.91;65.13
79494;SHT31;68951;53.130;18.104;2023-06-24T03:17:08;18.91;65.17
79494;SHT31;68951;53.130;18.104;2023-06-24T03:19:35;18.88;65.23
79494;SHT31;68951;53.130;18.104;2023-06-24T03:22:05;18.85;65.32
79494;SHT31;68951;53.130;18.104;2023-06-24T03:24:32;18.83;65.43
79494;SHT31;68951;53.130;18.104;2023-06-24T03:26:59;19.05;65.91
79494;SHT31;68951;53.130;18.104;2023-06-24T03:29:26;19.40;66.37
79494;SHT31;68951;53.130;18.104;2023-06-24T03:31:52;19.78;66.55
79494;SHT31;68951;53.130;18.104;2023-06-24T03:34:19;20.04;66.37
79494;SHT31;68951;53.130;18.104;2023-06-24T03:36:46;20.20;66.20
79494;SHT31;68951;53.130;18.104;2023-06-24T03:39:13;20.40;66.03
79494;SHT31;68951;53.130;18.104;2023-06-24T03:41:39;20.50;65.69
79494;SHT31;68951;53.130;18.104;2023-06-24T03:44:06;20.60;65.50
79494;SHT31;68951;53.130;18.104;2023-06-24T03:46:33;20.72;65.31
79494;SHT31;68951;53.130;18.104;2023-06-24T03:49:00;20.84;65.14
79494;SHT31;68951;53.130;18.104;2023-06-24T03:51:27;20.92;64.90
79494;SHT31;68951;53.130;18.104;2023-06-24T03:53:53;21.00;64.65
79494;SHT31;68951;53.130;18.104;2023-06-24T03:56:20;21.07;64.48
79494;SHT31;68951;53.130;18.104;2023-06-24T03:58:47;21.13;64.29
79494;SHT31;68951;53.130;18.104;2023-06-24T04:01:14;21.17;64.13
79494;SHT31;68951;53.130;18.104;2023-06-24T04:03:40;21.23;64.00
79494;SHT31;68951;53.130;18.104;2023-06-24T04:06:07;21.26;63.80
79494;SHT31;68951;53.130;18.104;2023-06-24T04:08:34;21.23;63.57
79494;SHT31;68951;53.130;18.104;2023-06-24T04:11:01;21.20;63.50
79494;SHT31;68951;53.130;18.104;2023-06-24T04:13:31;21.25;63.36
79494;SHT31;68951;53.130;18.104;2023-06-24T04:15:58;21.16;63.11
79494;SHT31;68951;53.130;18.104;2023-06-24T04:18:25;21.11;63.02
79494;SHT31;68951;53.130;18.104;2023-06-24T04:20:52;21.09;62.98
79494;SHT31;68951;53.130;18.104;2023-06-24T04:23:18;21.10;62.96
79494;SHT31;68951;53.130;18.104;2023-06-24T04:25:45;20.99;62.82
79494;SHT31;68951;53.130;18.104;2023-06-24T04:28:12;20.90;62.81
79494;SHT31;68951;53.130;18.104;2023-06-24T04:30:39;20.92;62.90
79494;SHT31;68951;53.130;18.104;2023-06-24T04:33:06;20.99;62.92
79494;SHT31;68951;53.130;18.104;2023-06-24T04:35:32;21.10;62.90
79494;SHT31;68951;53.130;18.104;2023-06-24T04:37:59;21.15;62.80
79494;SHT31;68951;53.130;18.104;2023-06-24T04:40:26;21.09;62.75
79494;SHT31;68951;53.130;18.104;2023-06-24T04:42:53;21.18;62.75
79494;SHT31;68951;53.130;18.104;2023-06-24T04:45:20;21.25;62.69
79494;SHT31;68951;53.130;18.104;2023-06-24T04:47:47;21.30;62.61
79494;SHT31;68951;53.130;18.104;2023-06-24T04:50:14;21.03;62.51
79494;SHT31;68951;53.130;18.104;2023-06-24T04:52:41;20.84;62.62
79494;SHT31;68951;53.130;18.104;2023-06-24T04:55:07;20.86;62.80
79494;SHT31;68951;53.130;18.104;2023-06-24T04:57:35;20.88;62.78
79494;SHT31;68951;53.130;18.104;2023-06-24T05:00:02;20.74;62.80
79494;SHT31;68951;53.130;18.104;2023-06-24T05:02:29;20.61;62.92
79494;SHT31;68951;53.130;18.104;2023-06-24T05:04:56;20.61;63.06
79494;SHT31;68951;53.130;18.104;2023-06-24T05:07:23;20.72;63.10
79494;SHT31;68951;53.130;18.104;2023-06-24T05:09:49;20.60;63.05
79494;SHT31;68951;53.130;18.104;2023-06-24T05:12:17;20.37;63.13
79494;SHT31;68951;53.130;18.104;2023-06-24T05:14:48;20.42;63.29
79494;SHT31;68951;53.130;18.104;2023-06-24T05:17:19;20.60;63.39
79494;SHT31;68951;53.130;18.104;2023-06-24T05:19:46;20.84;63.29
79494;SHT31;68951;53.130;18.104;2023-06-24T05:22:13;20.86;63.13
79494;SHT31;68951;53.130;18.104;2023-06-24T05:24:40;20.85;63.00
79494;SHT31;68951;53.130;18.104;2023-06-24T05:27:08;20.89;62.99
79494;SHT31;68951;53.130;18.104;2023-06-24T05:29:34;20.86;62.90
79494;SHT31;68951;53.130;18.104;2023-06-24T05:32:01;20.82;62.90
79494;SHT31;68951;53.130;18.104;2023-06-24T05:34:30;20.90;62.87
79494;SHT31;68951;53.130;18.104;2023-06-24T05:36:57;20.99;62.80
79494;SHT31;68951;53.130;18.104;2023-06-24T05:39:24;21.17;62.78
79494;SHT31;68951;53.130;18.104;2023-06-24T05:41:51;21.24;62.62
79494;SHT31;68951;53.130;18.104;2023-06-24T05:44:18;21.37;62.49
79494;SHT31;68951;53.130;18.104;2023-06-24T05:46:46;21.49;62.38
79494;SHT31;68951;53.130;18.104;2023-06-24T05:49:13;21.50;62.20
79494;SHT31;68951;53.130;18.104;2023-06-24T05:51:40;21.57;62.14
79494;SHT31;68951;53.130;18.104;2023-06-24T05:54:07;21.70;62.06
79494;SHT31;68951;53.130;18.104;2023-06-24T05:56:34;21.77;61.85
79494;SHT31;68951;53.130;18.104;2023-06-24T05:59:02;21.85;61.74
79494;SHT31;68951;53.130;18.104;2023-06-24T06:01:29;21.99;61.61
79494;SHT31;68951;53.130;18.104;2023-06-24T06:03:56;21.91;61.31
79494;SHT31;68951;53.130;18.104;2023-06-24T06:06:22;21.79;61.14
79494;SHT31;68951;53.130;18.104;2023-06-24T06:08:49;21.67;60.98
79494;SHT31;68951;53.130;18.104;2023-06-24T06:11:16;21.59;60.94
79494;SHT31;68951;53.130;18.104;2023-06-24T06:13:43;21.60;61.03
79494;SHT31;68951;53.130;18.104;2023-06-24T06:16:09;21.67;61.03
79494;SHT31;68951;53.130;18.104;2023-06-24T06:18:36;21.74;60.92
79494;SHT31;68951;53.130;18.104;2023-06-24T06:21:03;21.77;60.75
79494;SHT31;68951;53.130;18.104;2023-06-24T06:23:30;21.74;60.61
79494;SHT31;68951;53.130;18.104;2023-06-24T06:25:57;21.58;60.37
79494;SHT31;68951;53.130;18.104;2023-06-24T06:28:24;21.48;60.36
79494;SHT31;68951;53.130;18.104;2023-06-24T06:30:50;21.54;60.49
79494;SHT31;68951;53.130;18.104;2023-06-24T06:33:17;21.65;60.55
79494;SHT31;68951;53.130;18.104;2023-06-24T06:35:44;21.58;60.38
79494;SHT31;68951;53.130;18.104;2023-06-24T06:38:11;21.43;60.33
79494;SHT31;68951;53.130;18.104;2023-06-24T06:40:38;21.27;60.31
79494;SHT31;68951;53.130;18.104;2023-06-24T06:43:04;21.24;60.39
79494;SHT31;68951;53.130;18.104;2023-06-24T06:45:31;21.28;60.45
79494;SHT31;68951;53.130;18.104;2023-06-24T06:47:58;21.43;60.62
79494;SHT31;68951;53.130;18.104;2023-06-24T06:50:25;21.60;60.63
79494;SHT31;68951;53.130;18.104;2023-06-24T06:52:51;21.72;60.51
79494;SHT31;68951;53.130;18.104;2023-06-24T06:55:18;21.77;60.36
79494;SHT31;68951;53.130;18.104;2023-06-24T06:57:45;21.78;60.22
79494;SHT31;68951;53.130;18.104;2023-06-24T07:00:12;21.84;60.27
79494;SHT31;68951;53.130;18.104;2023-06-24T07:02:39;22.06;60.37
79494;SHT31;68951;53.130;18.104;2023-06-24T07:05:06;22.22;60.11
79494;SHT31;68951;53.130;18.104;2023-06-24T07:07:33;22.33;59.88
79494;SHT31;68951;53.130;18.104;2023-06-24T07:10:00;22.45;59.69
79494;SHT31;68951;53.130;18.104;2023-06-24T07:12:27;22.44;59.29
79494;SHT31;68951;53.130;18.104;2023-06-24T07:14:54;22.51;59.20
79494;SHT31;68951;53.130;18.104;2023-06-24T07:17:21;22.68;59.08
79494;SHT31;68951;53.130;18.104;2023-06-24T07:19:48;22.61;58.49
79494;SHT31;68951;53.130;18.104;2023-06-24T07:22:14;22.49;58.11
79494;SHT31;68951;53.130;18.104;2023-06-24T07:24:42;22.60;58.24
79494;SHT31;68951;53.130;18.104;2023-06-24T07:27:08;22.71;57.93
79494;SHT31;68951;53.130;18.104;2023-06-24T07:29:35;22.82;57.76
79494;SHT31;68951;53.130;18.104;2023-06-24T07:32:02;22.92;57.45
79494;SHT31;68951;53.130;18.104;2023-06-24T07:34:29;22.91;56.86
79494;SHT31;68951;53.130;18.104;2023-06-24T07:36:57;22.98;56.88
79494;SHT31;68951;53.130;18.104;2023-06-24T07:39:23;23.07;56.69
79494;SHT31;68951;53.130;18.104;2023-06-24T07:41:50;23.06;56.24
79494;SHT31;68951;53.130;18.104;2023-06-24T07:44:17;23.13;56.18
79494;SHT31;68951;53.130;18.104;2023-06-24T07:46:45;23.20;55.98
79494;SHT31;68951;53.130;18.104;2023-06-24T07:49:12;23.19;55.64
79494;SHT31;68951;53.130;18.104;2023-06-24T07:51:39;23.21;55.39
79494;SHT31;68951;53.130;18.104;2023-06-24T07:54:05;23.12;54.98
79494;SHT31;68951;53.130;18.104;2023-06-24T07:56:32;23.13;54.97
79494;SHT31;68951;53.130;18.104;2023-06-24T07:58:59;23.18;55.00
79494;SHT31;68951;53.130;18.104;2023-06-24T08:01:26;23.29;55.00
79494;SHT31;68951;53.130;18.104;2023-06-24T08:03:52;23.34;54.90
79494;SHT31;68951;53.130;18.104;2023-06-24T08:06:19;23.41;54.90
79494;SHT31;68951;53.130;18.104;2023-06-24T08:08:46;23.49;54.88
79494;SHT31;68951;53.130;18.104;2023-06-24T08:11:13;23.40;54.40
79494;SHT31;68951;53.130;18.104;2023-06-24T08:13:40;23.34;54.29
79494;SHT31;68951;53.130;18.104;2023-06-24T08:16:07;23.33;54.19
79494;SHT31;68951;53.130;18.104;2023-06-24T08:18:34;23.35;53.95
79494;SHT31;68951;53.130;18.104;2023-06-24T08:21:00;23.41;53.76
79494;SHT31;68951;53.130;18.104;2023-06-24T08:23:27;23.40;53.63
79494;SHT31;68951;53.130;18.104;2023-06-24T08:25:54;23.47;53.57
79494;SHT31;68951;53.130;18.104;2023-06-24T08:28:20;23.59;53.45
79494;SHT31;68951;53.130;18.104;2023-06-24T08:30:47;23.59;53.33
79494;SHT31;68951;53.130;18.104;2023-06-24T08:33:14;23.50;53.14
79494;SHT31;68951;53.130;18.104;2023-06-24T08:35:41;23.38;53.08
79494;SHT31;68951;53.130;18.104;2023-06-24T08:38:07;23.28;53.10
79494;SHT31;68951;53.130;18.104;2023-06-24T08:40:34;23.13;53.02
79494;SHT31;68951;53.130;18.104;2023-06-24T08:43:01;23.01;53.17
79494;SHT31;68951;53.130;18.104;2023-06-24T08:45:28;23.00;53.30
79494;SHT31;68951;53.130;18.104;2023-06-24T08:47:54;22.99;53.31
79494;SHT31;68951;53.130;18.104;2023-06-24T08:50:22;23.08;53.32
79494;SHT31;68951;53.130;18.104;2023-06-24T08:52:53;23.18;53.23
79494;SHT31;68951;53.130;18.104;2023-06-24T08:55:22;23.27;53.12
79494;SHT31;68951;53.130;18.104;2023-06-24T08:57:50;23.23;52.86
79494;SHT31;68951;53.130;18.104;2023-06-24T09:00:17;23.29;52.84
79494;SHT31;68951;53.130;18.104;2023-06-24T09:02:44;23.48;52.93
79494;SHT31;68951;53.130;18.104;2023-06-24T09:05:11;23.68;52.88
79494;SHT31;68951;53.130;18.104;2023-06-24T09:07:38;23.79;52.42
79494;SHT31;68951;53.130;18.104;2023-06-24T09:10:05;23.93;52.14
79494;SHT31;68951;53.130;18.104;2023-06-24T09:12:34;24.05;52.08
79494;SHT31;68951;53.130;18.104;2023-06-24T09:15:02;24.17;51.91
79494;SHT31;68951;53.130;18.104;2023-06-24T09:17:29;24.37;51.72
79494;SHT31;68951;53.130;18.104;2023-06-24T09:20:02;24.58;51.50
79494;SHT31;68951;53.130;18.104;2023-06-24T09:22:31;24.82;51.21
79494;SHT31;68951;53.130;18.104;2023-06-24T09:25:00;25.05;50.64
79494;SHT31;68951;53.130;18.104;2023-06-24T09:27:30;25.20;50.35
79494;SHT31;68951;53.130;18.104;2023-06-24T09:29:59;25.33;50.45
79494;SHT31;68951;53.130;18.104;2023-06-24T09:32:29;25.54;50.57
79494;SHT31;68951;53.130;18.104;2023-06-24T09:34:56;25.72;50.39
79494;SHT31;68951;53.130;18.104;2023-06-24T09:37:24;25.85;50.12
79494;SHT31;68951;53.130;18.104;2023-06-24T09:39:57;26.00;49.76
79494;SHT31;68951;53.130;18.104;2023-06-24T09:42:23;26.16;49.51
79494;SHT31;68951;53.130;18.104;2023-06-24T09:44:54;26.34;49.38
79494;SHT31;68951;53.130;18.104;2023-06-24T09:47:22;26.39;49.01
79494;SHT31;68951;53.130;18.104;2023-06-24T09:49:53;26.50;48.81
79494;SHT31;68951;53.130;18.104;2023-06-24T09:52:20;26.51;48.80
79494;SHT31;68951;53.130;18.104;2023-06-24T09:54:50;26.47;48.72
79494;SHT31;68951;53.130;18.104;2023-06-24T09:57:20;26.67;48.59
79494;SHT31;68951;53.130;18.104;2023-06-24T09:59:53;26.81;48.13
79494;SHT31;68951;53.130;18.104;2023-06-24T10:02:21;26.81;48.05
79494;SHT31;68951;53.130;18.104;2023-06-24T10:04:48;26.75;48.15
79494;SHT31;68951;53.130;18.104;2023-06-24T10:07:16;26.63;48.13
79494;SHT31;68951;53.130;18.104;2023-06-24T10:09:43;26.53;47.80
79494;SHT31;68951;53.130;18.104;2023-06-24T10:12:10;26.45;47.75
79494;SHT31;68951;53.130;18.104;2023-06-24T10:14:37;26.42;47.83
79494;SHT31;68951;53.130;18.104;2023-06-24T10:17:04;26.84;47.73
79494;SHT31;68951;53.130;18.104;2023-06-24T10:19:37;27.33;47.37
79494;SHT31;68951;53.130;18.104;2023-06-24T10:22:10;27.51;46.87
79494;SHT31;68951;53.130;18.104;2023-06-24T10:24:38;27.61;46.66
79494;SHT31;68951;53.130;18.104;2023-06-24T10:27:09;27.52;46.68
79494;SHT31;68951;53.130;18.104;2023-06-24T10:29:45;27.87;46.60
79494;SHT31;68951;53.130;18.104;2023-06-24T10:32:14;28.09;46.30
79494;SHT31;68951;53.130;18.104;2023-06-24T10:34:53;28.13;45.92
79494;SHT31;68951;53.130;18.104;2023-06-24T10:37:23;28.22;45.71
79494;SHT31;68951;53.130;18.104;2023-06-24T10:39:58;28.19;45.54
79494;SHT31;68951;53.130;18.104;2023-06-24T10:42:39;28.56;45.03
79494;SHT31;68951;53.130;18.104;2023-06-24T10:47:35;29.24;43.72
79494;SHT31;68951;53.130;18.104;2023-06-24T10:50:22;29.45;43.33
79494;SHT31;68951;53.130;18.104;2023-06-24T10:52:52;29.46;43.03
79494;SHT31;68951;53.130;18.104;2023-06-24T10:55:22;29.50;42.59
79494;SHT31;68951;53.130;18.104;2023-06-24T10:57:53;29.46;42.55
79494;SHT31;68951;53.130;18.104;2023-06-24T11:00:21;29.65;42.39
79494;SHT31;68951;53.130;18.104;2023-06-24T11:02:48;29.96;42.23
79494;SHT31;68951;53.130;18.104;2023-06-24T11:05:15;30.18;42.09
79494;SHT31;68951;53.130;18.104;2023-06-24T11:07:42;30.52;41.81
79494;SHT31;68951;53.130;18.104;2023-06-24T11:10:10;30.91;41.44
79494;SHT31;68951;53.130;18.104;2023-06-24T11:12:39;31.13;40.74
79494;SHT31;68951;53.130;18.104;2023-06-24T11:15:08;30.97;40.32
79494;SHT31;68951;53.130;18.104;2023-06-24T11:17:38;30.84;40.02
79494;SHT31;68951;53.130;18.104;2023-06-24T11:20:09;30.77;39.77
79494;SHT31;68951;53.130;18.104;2023-06-24T11:22:45;30.75;39.76
79494;SHT31;68951;53.130;18.104;2023-06-24T11:25:16;30.89;39.90
79494;SHT31;68951;53.130;18.104;2023-06-24T11:27:49;30.84;39.85
79494;SHT31;68951;53.130;18.104;2023-06-24T11:30:21;30.77;39.80
79494;SHT31;68951;53.130;18.104;2023-06-24T11:32:48;30.65;40.00
79494;SHT31;68951;53.130;18.104;2023-06-24T11:35:20;30.40;40.10
79494;SHT31;68951;53.130;18.104;2023-06-24T11:37:47;30.12;40.06
79494;SHT31;68951;53.130;18.104;2023-06-24T11:40:16;29.80;40.13
79494;SHT31;68951;53.130;18.104;2023-06-24T11:42:46;29.57;40.11
79494;SHT31;68951;53.130;18.104;2023-06-24T11:45:14;29.52;39.98
79494;SHT31;68951;53.130;18.104;2023-06-24T11:47:47;29.89;39.96
79494;SHT31;68951;53.130;18.104;2023-06-24T11:50:14;30.62;39.98
79494;SHT31;68951;53.130;18.104;2023-06-24T11:52:42;31.11;39.71
79494;SHT31;68951;53.130;18.104;2023-06-24T11:55:18;31.83;39.38
79494;SHT31;68951;53.130;18.104;2023-06-24T12:00:55;32.15;38.02
79494;SHT31;68951;53.130;18.104;2023-06-24T12:03:16;32.49;37.72
79494;SHT31;68951;53.130;18.104;2023-06-24T12:05:43;32.63;37.44
79494;SHT31;68951;53.130;18.104;2023-06-24T12:08:13;32.26;37.35
79494;SHT31;68951;53.130;18.104;2023-06-24T12:10:42;31.86;37.28
79494;SHT31;68951;53.130;18.104;2023-06-24T12:13:11;31.46;37.34
79494;SHT31;68951;53.130;18.104;2023-06-24T12:15:38;31.15;37.57
79494;SHT31;68951;53.130;18.104;2023-06-24T12:18:05;31.11;37.87
79494;SHT31;68951;53.130;18.104;2023-06-24T12:20:33;31.02;38.08
79494;SHT31;68951;53.130;18.104;2023-06-24T12:23:07;31.09;38.28
79494;SHT31;68951;53.130;18.104;2023-06-24T12:25:36;31.64;38.23
79494;SHT31;68951;53.130;18.104;2023-06-24T12:28:03;32.18;37.88
79494;SHT31;68951;53.130;18.104;2023-06-24T12:30:30;32.46;37.47
79494;SHT31;68951;53.130;18.104;2023-06-24T12:32:57;32.78;37.29
79494;SHT31;68951;53.130;18.104;2023-06-24T12:35:23;32.98;36.82
79494;SHT31;68951;53.130;18.104;2023-06-24T12:37:51;32.98;36.60
79494;SHT31;68951;53.130;18.104;2023-06-24T12:40:18;33.28;36.42
79494;SHT31;68951;53.130;18.104;2023-06-24T12:42:45;33.76;36.10
79494;SHT31;68951;53.130;18.104;2023-06-24T12:45:12;34.16;35.76
79494;SHT31;68951;53.130;18.104;2023-06-24T12:47:39;34.57;35.43
79494;SHT31;68951;53.130;18.104;2023-06-24T12:50:06;34.91;34.85
79494;SHT31;68951;53.130;18.104;2023-06-24T12:52:34;34.69;34.58
79494;SHT31;68951;53.130;18.104;2023-06-24T12:55:01;34.90;34.39
79494;SHT31;68951;53.130;18.104;2023-06-24T12:57:29;35.19;34.08
79494;SHT31;68951;53.130;18.104;2023-06-24T12:59:56;35.37;33.79
79494;SHT31;68951;53.130;18.104;2023-06-24T13:02:23;34.94;33.45
79494;SHT31;68951;53.130;18.104;2023-06-24T13:04:50;34.80;33.45
79494;SHT31;68951;53.130;18.104;2023-06-24T13:07:17;34.58;33.24
79494;SHT31;68951;53.130;18.104;2023-06-24T13:09:43;34.41;33.19
79494;SHT31;68951;53.130;18.104;2023-06-24T13:12:10;34.41;33.10
79494;SHT31;68951;53.130;18.104;2023-06-24T13:14:37;34.80;33.09
79494;SHT31;68951;53.130;18.104;2023-06-24T13:17:04;34.81;32.83
79494;SHT31;68951;53.130;18.104;2023-06-24T13:19:31;34.22;32.76
79494;SHT31;68951;53.130;18.104;2023-06-24T13:22:01;33.60;33.00
79494;SHT31;68951;53.130;18.104;2023-06-24T13:24:28;33.61;33.13
79494;SHT31;68951;53.130;18.104;2023-06-24T13:26:56;34.03;33.08
79494;SHT31;68951;53.130;18.104;2023-06-24T13:29:23;33.90;33.02
79494;SHT31;68951;53.130;18.104;2023-06-24T13:31:49;33.33;33.14
79494;SHT31;68951;53.130;18.104;2023-06-24T13:34:16;33.15;33.57
79494;SHT31;68951;53.130;18.104;2023-06-24T13:36:43;33.34;33.59
79494;SHT31;68951;53.130;18.104;2023-06-24T13:39:10;33.66;33.72
79494;SHT31;68951;53.130;18.104;2023-06-24T13:41:44;33.67;33.51
79494;SHT31;68951;53.130;18.104;2023-06-24T13:44:11;33.52;33.34
79494;SHT31;68951;53.130;18.104;2023-06-24T13:46:38;33.13;33.51
79494;SHT31;68951;53.130;18.104;2023-06-24T13:49:05;32.81;33.76
79494;SHT31;68951;53.130;18.104;2023-06-24T13:51:31;32.40;34.08
79494;SHT31;68951;53.130;18.104;2023-06-24T13:53:59;32.04;34.37
79494;SHT31;68951;53.130;18.104;2023-06-24T13:56:26;31.83;34.57
79494;SHT31;68951;53.130;18.104;2023-06-24T13:58:57;31.73;34.68
79494;SHT31;68951;53.130;18.104;2023-06-24T14:01:24;31.80;34.81
79494;SHT31;68951;53.130;18.104;2023-06-24T14:03:51;31.53;34.81
79494;SHT31;68951;53.130;18.104;2023-06-24T14:06:20;31.79;34.96
79494;SHT31;68951;53.130;18.104;2023-06-24T14:08:53;32.12;34.91
79494;SHT31;68951;53.130;18.104;2023-06-24T14:11:20;32.38;34.75
79494;SHT31;68951;53.130;18.104;2023-06-24T14:13:47;32.35;34.52
79494;SHT31;68951;53.130;18.104;2023-06-24T14:16:14;31.89;34.62
79494;SHT31;68951;53.130;18.104;2023-06-24T14:18:43;31.54;34.89
79494;SHT31;68951;53.130;18.104;2023-06-24T14:21:10;31.51;35.17
79494;SHT31;68951;53.130;18.104;2023-06-24T14:23:37;31.41;35.32
79494;SHT31;68951;53.130;18.104;2023-06-24T14:26:04;31.71;35.24
79494;SHT31;68951;53.130;18.104;2023-06-24T14:28:31;31.94;34.92
79494;SHT31;68951;53.130;18.104;2023-06-24T14:30:57;32.21;34.87
79494;SHT31;68951;53.130;18.104;2023-06-24T14:33:24;32.67;34.80
79494;SHT31;68951;53.130;18.104;2023-06-24T14:35:52;33.14;34.50
79494;SHT31;68951;53.130;18.104;2023-06-24T14:38:19;33.35;34.23
79494;SHT31;68951;53.130;18.104;2023-06-24T14:40:46;33.25;34.02
79494;SHT31;68951;53.130;18.104;2023-06-24T14:43:13;33.24;33.92
79494;SHT31;68951;53.130;18.104;2023-06-24T14:45:40;33.34;33.90
79494;SHT31;68951;53.130;18.104;2023-06-24T14:48:07;33.26;33.54
79494;SHT31;68951;53.130;18.104;2023-06-24T14:50:34;32.73;33.54
79494;SHT31;68951;53.130;18.104;2023-06-24T14:53:02;32.49;33.69
79494;SHT31;68951;53.130;18.104;2023-06-24T14:55:31;32.28;33.80
79494;SHT31;68951;53.130;18.104;2023-06-24T14:57:58;32.28;33.87
79494;SHT31;68951;53.130;18.104;2023-06-24T15:00:25;32.18;33.88
79494;SHT31;68951;53.130;18.104;2023-06-24T15:02:52;32.30;33.84
79494;SHT31;68951;53.130;18.104;2023-06-24T15:05:19;32.34;33.66
79494;SHT31;68951;53.130;18.104;2023-06-24T15:07:46;32.20;33.72
79494;SHT31;68951;53.130;18.104;2023-06-24T15:10:13;32.05;33.72
79494;SHT31;68951;53.130;18.104;2023-06-24T15:12:40;31.91;33.76
79494;SHT31;68951;53.130;18.104;2023-06-24T15:15:07;31.83;33.84
79494;SHT31;68951;53.130;18.104;2023-06-24T15:17:34;31.63;33.95
79494;SHT31;68951;53.130;18.104;2023-06-24T15:20:07;31.33;34.11
79494;SHT31;68951;53.130;18.104;2023-06-24T15:22:35;31.07;34.26
79494;SHT31;68951;53.130;18.104;2023-06-24T15:25:02;30.84;34.43
79494;SHT31;68951;53.130;18.104;2023-06-24T15:27:30;30.60;34.61
79494;SHT31;68951;53.130;18.104;2023-06-24T15:29:57;30.40;34.84
79494;SHT31;68951;53.130;18.104;2023-06-24T15:32:24;30.19;35.01
79494;SHT31;68951;53.130;18.104;2023-06-24T15:34:51;29.98;35.26
79494;SHT31;68951;53.130;18.104;2023-06-24T15:37:18;29.89;35.58
79494;SHT31;68951;53.130;18.104;2023-06-24T15:39:45;29.75;35.62
79494;SHT31;68951;53.130;18.104;2023-06-24T15:42:11;29.54;35.74